Dempster, South Dakota
Current Conditions -  °F | °C
As of 12:53 PM on Thursday 27 Nov 2014 (Local Time) from KATY Reporting Station
Clear Clear  
Wind Chill: -12°   Ceiling: Unl
Heat Index:   Visibility: 10mi
Dew Point: -5°   Wind: 14mph
Humidity: 63%   Direction: 160°SSE
Pressure: 30.31"   Gusts: NA
Location:  44.6241°N, 96.9581°W
Report Text: KATY 271853Z AUTO 16012KT 10SM CLR M15/M21 A3031 RMK AO2 SLP313 T11501206
Loading
Personal Weather Stations






























Interactive Weather Map New forecast layout! Learn more

10-Day Weather Forecast

Advertisements
Track Severe Weather on mobile